sensor_id;sensor_type;location;lat;lon;timestamp;P1;durP1;ratioP1;P2;durP2;ratioP2
37907;SDS011;23740;51.550;6.846;2023-02-11T00:00:04;5.03;;;3.80;;
37907;SDS011;23740;51.550;6.846;2023-02-11T00:02:31;6.72;;;4.28;;
37907;SDS011;23740;51.550;6.846;2023-02-11T00:04:58;5.97;;;4.05;;
37907;SDS011;23740;51.550;6.846;2023-02-11T00:07:27;7.33;;;4.47;;
37907;SDS011;23740;51.550;6.846;2023-02-11T00:09:54;6.85;;;4.20;;
37907;SDS011;23740;51.550;6.846;2023-02-11T00:12:22;5.65;;;3.83;;
37907;SDS011;23740;51.550;6.846;2023-02-11T00:14:49;5.45;;;3.53;;
37907;SDS011;23740;51.550;6.846;2023-02-11T00:17:15;7.13;;;3.63;;
37907;SDS011;23740;51.550;6.846;2023-02-11T00:19:42;7.75;;;4.38;;
37907;SDS011;23740;51.550;6.846;2023-02-11T00:22:09;5.93;;;3.80;;
37907;SDS011;23740;51.550;6.846;2023-02-11T00:24:35;7.25;;;4.22;;
37907;SDS011;23740;51.550;6.846;2023-02-11T00:27:02;6.10;;;3.85;;
37907;SDS011;23740;51.550;6.846;2023-02-11T00:29:30;5.80;;;4.03;;
37907;SDS011;23740;51.550;6.846;2023-02-11T00:31:57;5.97;;;3.97;;
37907;SDS011;23740;51.550;6.846;2023-02-11T00:34:29;6.15;;;4.22;;
37907;SDS011;23740;51.550;6.846;2023-02-11T00:36:55;7.85;;;3.75;;
37907;SDS011;23740;51.550;6.846;2023-02-11T00:39:22;6.57;;;3.92;;
37907;SDS011;23740;51.550;6.846;2023-02-11T00:41:49;5.88;;;3.55;;
37907;SDS011;23740;51.550;6.846;2023-02-11T00:44:15;8.02;;;4.70;;
37907;SDS011;23740;51.550;6.846;2023-02-11T00:46:43;4.70;;;3.65;;
37907;SDS011;23740;51.550;6.846;2023-02-11T00:49:10;6.13;;;3.92;;
37907;SDS011;23740;51.550;6.846;2023-02-11T00:51:37;6.55;;;4.00;;
37907;SDS011;23740;51.550;6.846;2023-02-11T00:54:03;6.43;;;3.35;;
37907;SDS011;23740;51.550;6.846;2023-02-11T00:56:30;5.85;;;3.70;;
37907;SDS011;23740;51.550;6.846;2023-02-11T00:58:57;5.35;;;3.72;;
37907;SDS011;23740;51.550;6.846;2023-02-11T01:01:24;5.10;;;3.35;;
37907;SDS011;23740;51.550;6.846;2023-02-11T01:03:52;6.28;;;3.85;;
37907;SDS011;23740;51.550;6.846;2023-02-11T01:06:18;5.50;;;3.70;;
37907;SDS011;23740;51.550;6.846;2023-02-11T01:08:45;6.85;;;4.03;;
37907;SDS011;23740;51.550;6.846;2023-02-11T01:11:12;5.07;;;3.97;;
37907;SDS011;23740;51.550;6.846;2023-02-11T01:13:40;6.32;;;3.97;;
37907;SDS011;23740;51.550;6.846;2023-02-11T01:16:08;5.85;;;4.10;;
37907;SDS011;23740;51.550;6.846;2023-02-11T01:18:35;5.82;;;4.13;;
37907;SDS011;23740;51.550;6.846;2023-02-11T01:21:04;5.45;;;3.80;;
37907;SDS011;23740;51.550;6.846;2023-02-11T01:23:31;6.15;;;3.50;;
37907;SDS011;23740;51.550;6.846;2023-02-11T01:25:58;5.15;;;3.53;;
37907;SDS011;23740;51.550;6.846;2023-02-11T01:28:26;6.07;;;4.20;;
37907;SDS011;23740;51.550;6.846;2023-02-11T01:30:54;7.40;;;3.53;;
37907;SDS011;23740;51.550;6.846;2023-02-11T01:33:21;5.95;;;3.80;;
37907;SDS011;23740;51.550;6.846;2023-02-11T01:35:48;5.25;;;3.33;;
37907;SDS011;23740;51.550;6.846;2023-02-11T01:38:18;4.82;;;3.45;;
37907;SDS011;23740;51.550;6.846;2023-02-11T01:40:46;7.20;;;3.85;;
37907;SDS011;23740;51.550;6.846;2023-02-11T01:43:14;5.57;;;3.53;;
37907;SDS011;23740;51.550;6.846;2023-02-11T01:45:44;5.38;;;3.50;;
37907;SDS011;23740;51.550;6.846;2023-02-11T01:48:24;5.53;;;3.58;;
37907;SDS011;23740;51.550;6.846;2023-02-11T01:50:54;6.18;;;3.90;;
37907;SDS011;23740;51.550;6.846;2023-02-11T01:53:25;5.97;;;3.50;;
37907;SDS011;23740;51.550;6.846;2023-02-11T01:56:10;5.15;;;3.75;;
37907;SDS011;23740;51.550;6.846;2023-02-11T01:58:56;5.93;;;3.10;;
37907;SDS011;23740;51.550;6.846;2023-02-11T02:01:26;4.65;;;3.28;;
37907;SDS011;23740;51.550;6.846;2023-02-11T02:03:53;5.22;;;3.28;;
37907;SDS011;23740;51.550;6.846;2023-02-11T02:06:23;5.93;;;3.88;;
37907;SDS011;23740;51.550;6.846;2023-02-11T02:08:55;6.07;;;4.03;;
37907;SDS011;23740;51.550;6.846;2023-02-11T02:11:25;5.65;;;3.20;;
37907;SDS011;23740;51.550;6.846;2023-02-11T02:13:51;5.68;;;3.50;;
37907;SDS011;23740;51.550;6.846;2023-02-11T02:16:28;5.03;;;3.20;;
37907;SDS011;23740;51.550;6.846;2023-02-11T02:19:01;5.32;;;3.97;;
37907;SDS011;23740;51.550;6.846;2023-02-11T02:27:44;5.18;;;3.65;;
37907;SDS011;23740;51.550;6.846;2023-02-11T02:33:20;6.15;;;3.33;;
37907;SDS011;23740;51.550;6.846;2023-02-11T02:35:52;4.60;;;3.47;;
37907;SDS011;23740;51.550;6.846;2023-02-11T02:38:26;5.30;;;2.97;;
37907;SDS011;23740;51.550;6.846;2023-02-11T02:40:58;6.70;;;3.70;;
37907;SDS011;23740;51.550;6.846;2023-02-11T02:43:27;6.60;;;3.33;;
37907;SDS011;23740;51.550;6.846;2023-02-11T02:45:54;4.97;;;3.50;;
37907;SDS011;23740;51.550;6.846;2023-02-11T02:48:24;5.75;;;3.17;;
37907;SDS011;23740;51.550;6.846;2023-02-11T02:50:52;5.45;;;3.60;;
37907;SDS011;23740;51.550;6.846;2023-02-11T02:53:29;4.40;;;3.03;;
37907;SDS011;23740;51.550;6.846;2023-02-11T02:55:59;4.78;;;3.08;;
37907;SDS011;23740;51.550;6.846;2023-02-11T02:58:41;4.78;;;3.60;;
37907;SDS011;23740;51.550;6.846;2023-02-11T03:01:20;4.90;;;3.58;;
37907;SDS011;23740;51.550;6.846;2023-02-11T03:03:56;4.80;;;3.10;;
37907;SDS011;23740;51.550;6.846;2023-02-11T03:06:27;5.30;;;3.30;;
37907;SDS011;23740;51.550;6.846;2023-02-11T03:08:58;6.38;;;3.20;;
37907;SDS011;23740;51.550;6.846;2023-02-11T03:11:26;7.00;;;3.28;;
37907;SDS011;23740;51.550;6.846;2023-02-11T03:13:54;5.53;;;3.30;;
37907;SDS011;23740;51.550;6.846;2023-02-11T03:16:22;6.00;;;3.35;;
37907;SDS011;23740;51.550;6.846;2023-02-11T03:18:51;5.22;;;3.33;;
37907;SDS011;23740;51.550;6.846;2023-02-11T03:21:23;4.32;;;3.10;;
37907;SDS011;23740;51.550;6.846;2023-02-11T03:23:52;6.30;;;3.30;;
37907;SDS011;23740;51.550;6.846;2023-02-11T03:26:22;5.28;;;3.33;;
37907;SDS011;23740;51.550;6.846;2023-02-11T03:28:51;5.72;;;3.45;;
37907;SDS011;23740;51.550;6.846;2023-02-11T03:31:26;5.97;;;3.42;;
37907;SDS011;23740;51.550;6.846;2023-02-11T03:33:58;6.30;;;3.50;;
37907;SDS011;23740;51.550;6.846;2023-02-11T03:36:28;5.43;;;3.28;;
37907;SDS011;23740;51.550;6.846;2023-02-11T03:38:58;5.63;;;3.67;;
37907;SDS011;23740;51.550;6.846;2023-02-11T03:41:25;6.72;;;3.40;;
37907;SDS011;23740;51.550;6.846;2023-02-11T03:43:53;6.70;;;3.88;;
37907;SDS011;23740;51.550;6.846;2023-02-11T03:46:21;3.65;;;2.92;;
37907;SDS011;23740;51.550;6.846;2023-02-11T03:48:50;5.10;;;2.85;;
37907;SDS011;23740;51.550;6.846;2023-02-11T03:51:20;5.22;;;2.83;;
37907;SDS011;23740;51.550;6.846;2023-02-11T03:53:48;6.93;;;3.53;;
37907;SDS011;23740;51.550;6.846;2023-02-11T03:56:18;4.00;;;2.80;;
37907;SDS011;23740;51.550;6.846;2023-02-11T03:58:47;4.50;;;2.92;;
37907;SDS011;23740;51.550;6.846;2023-02-11T04:01:14;4.72;;;3.08;;
37907;SDS011;23740;51.550;6.846;2023-02-11T04:03:41;4.65;;;2.90;;
37907;SDS011;23740;51.550;6.846;2023-02-11T04:06:07;4.88;;;3.20;;
37907;SDS011;23740;51.550;6.846;2023-02-11T04:08:35;6.65;;;3.30;;
37907;SDS011;23740;51.550;6.846;2023-02-11T04:11:02;3.42;;;2.53;;
37907;SDS011;23740;51.550;6.846;2023-02-11T04:13:28;5.30;;;3.28;;
37907;SDS011;23740;51.550;6.846;2023-02-11T04:15:55;5.28;;;3.53;;
37907;SDS011;23740;51.550;6.846;2023-02-11T04:18:22;6.65;;;3.28;;
37907;SDS011;23740;51.550;6.846;2023-02-11T04:20:49;5.47;;;3.05;;
37907;SDS011;23740;51.550;6.846;2023-02-11T04:23:16;5.03;;;2.88;;
37907;SDS011;23740;51.550;6.846;2023-02-11T04:25:44;3.58;;;2.67;;
37907;SDS011;23740;51.550;6.846;2023-02-11T04:28:10;4.68;;;3.10;;
37907;SDS011;23740;51.550;6.846;2023-02-11T04:30:37;3.38;;;2.90;;
37907;SDS011;23740;51.550;6.846;2023-02-11T04:33:03;7.13;;;2.90;;
37907;SDS011;23740;51.550;6.846;2023-02-11T04:35:30;4.28;;;2.95;;
37907;SDS011;23740;51.550;6.846;2023-02-11T04:37:57;5.40;;;2.63;;
37907;SDS011;23740;51.550;6.846;2023-02-11T04:40:23;6.72;;;3.10;;
37907;SDS011;23740;51.550;6.846;2023-02-11T04:42:51;3.60;;;2.53;;
37907;SDS011;23740;51.550;6.846;2023-02-11T04:45:18;4.20;;;2.50;;
37907;SDS011;23740;51.550;6.846;2023-02-11T04:47:44;4.63;;;2.95;;
37907;SDS011;23740;51.550;6.846;2023-02-11T04:50:11;4.80;;;2.90;;
37907;SDS011;23740;51.550;6.846;2023-02-11T04:52:37;4.35;;;3.60;;
37907;SDS011;23740;51.550;6.846;2023-02-11T04:55:04;4.38;;;2.90;;
37907;SDS011;23740;51.550;6.846;2023-02-11T04:57:31;4.18;;;2.97;;
37907;SDS011;23740;51.550;6.846;2023-02-11T04:59:59;4.93;;;2.65;;
37907;SDS011;23740;51.550;6.846;2023-02-11T05:02:26;6.68;;;3.15;;
37907;SDS011;23740;51.550;6.846;2023-02-11T05:04:52;4.50;;;2.88;;
37907;SDS011;23740;51.550;6.846;2023-02-11T05:07:19;4.90;;;3.10;;
37907;SDS011;23740;51.550;6.846;2023-02-11T05:09:46;6.30;;;3.00;;
37907;SDS011;23740;51.550;6.846;2023-02-11T05:12:12;5.15;;;2.80;;
37907;SDS011;23740;51.550;6.846;2023-02-11T05:14:39;3.53;;;2.67;;
37907;SDS011;23740;51.550;6.846;2023-02-11T05:17:07;4.70;;;2.92;;
37907;SDS011;23740;51.550;6.846;2023-02-11T05:19:34;4.93;;;2.80;;
37907;SDS011;23740;51.550;6.846;2023-02-11T05:22:00;4.60;;;2.75;;
37907;SDS011;23740;51.550;6.846;2023-02-11T05:24:27;4.30;;;2.92;;
37907;SDS011;23740;51.550;6.846;2023-02-11T05:26:53;7.00;;;3.05;;
37907;SDS011;23740;51.550;6.846;2023-02-11T05:29:20;8.85;;;3.28;;
37907;SDS011;23740;51.550;6.846;2023-02-11T05:31:47;5.85;;;3.38;;
37907;SDS011;23740;51.550;6.846;2023-02-11T05:34:14;5.03;;;3.42;;
37907;SDS011;23740;51.550;6.846;2023-02-11T05:36:41;4.55;;;3.08;;
37907;SDS011;23740;51.550;6.846;2023-02-11T05:39:11;5.07;;;2.83;;
37907;SDS011;23740;51.550;6.846;2023-02-11T05:41:37;6.07;;;3.10;;
37907;SDS011;23740;51.550;6.846;2023-02-11T05:44:04;5.07;;;3.28;;
37907;SDS011;23740;51.550;6.846;2023-02-11T05:46:30;5.82;;;2.97;;
37907;SDS011;23740;51.550;6.846;2023-02-11T05:48:57;4.53;;;2.70;;
37907;SDS011;23740;51.550;6.846;2023-02-11T05:51:25;4.80;;;2.90;;
37907;SDS011;23740;51.550;6.846;2023-02-11T05:53:52;4.70;;;2.80;;
37907;SDS011;23740;51.550;6.846;2023-02-11T05:56:19;5.55;;;2.90;;
37907;SDS011;23740;51.550;6.846;2023-02-11T05:58:46;4.30;;;2.88;;
37907;SDS011;23740;51.550;6.846;2023-02-11T06:01:12;5.80;;;3.20;;
37907;SDS011;23740;51.550;6.846;2023-02-11T06:03:39;3.67;;;2.53;;
37907;SDS011;23740;51.550;6.846;2023-02-11T06:06:08;7.13;;;3.10;;
37907;SDS011;23740;51.550;6.846;2023-02-11T06:08:36;4.80;;;2.75;;
37907;SDS011;23740;51.550;6.846;2023-02-11T06:11:03;3.85;;;2.50;;
37907;SDS011;23740;51.550;6.846;2023-02-11T06:13:30;6.00;;;3.13;;
37907;SDS011;23740;51.550;6.846;2023-02-11T06:15:57;3.05;;;2.40;;
37907;SDS011;23740;51.550;6.846;2023-02-11T06:18:24;6.53;;;2.75;;
37907;SDS011;23740;51.550;6.846;2023-02-11T06:20:51;5.18;;;3.13;;
37907;SDS011;23740;51.550;6.846;2023-02-11T06:23:18;5.82;;;3.10;;
37907;SDS011;23740;51.550;6.846;2023-02-11T06:25:46;4.68;;;2.88;;
37907;SDS011;23740;51.550;6.846;2023-02-11T06:28:12;4.85;;;2.95;;
37907;SDS011;23740;51.550;6.846;2023-02-11T06:30:39;4.10;;;2.40;;
37907;SDS011;23740;51.550;6.846;2023-02-11T06:33:05;4.32;;;2.65;;
37907;SDS011;23740;51.550;6.846;2023-02-11T06:35:32;6.32;;;2.85;;
37907;SDS011;23740;51.550;6.846;2023-02-11T06:37:59;4.00;;;2.60;;
37907;SDS011;23740;51.550;6.846;2023-02-11T06:40:26;4.90;;;2.95;;
37907;SDS011;23740;51.550;6.846;2023-02-11T06:42:54;3.88;;;2.83;;
37907;SDS011;23740;51.550;6.846;2023-02-11T06:45:20;5.03;;;2.97;;
37907;SDS011;23740;51.550;6.846;2023-02-11T06:47:47;3.80;;;2.58;;
37907;SDS011;23740;51.550;6.846;2023-02-11T06:50:16;5.72;;;3.10;;
37907;SDS011;23740;51.550;6.846;2023-02-11T06:52:43;5.25;;;3.10;;
37907;SDS011;23740;51.550;6.846;2023-02-11T06:55:09;3.90;;;2.40;;
37907;SDS011;23740;51.550;6.846;2023-02-11T06:57:36;4.85;;;3.17;;
37907;SDS011;23740;51.550;6.846;2023-02-11T07:00:05;5.70;;;3.17;;
37907;SDS011;23740;51.550;6.846;2023-02-11T07:02:32;4.75;;;2.63;;
37907;SDS011;23740;51.550;6.846;2023-02-11T07:04:59;6.18;;;3.05;;
37907;SDS011;23740;51.550;6.846;2023-02-11T07:07:26;3.55;;;2.58;;
37907;SDS011;23740;51.550;6.846;2023-02-11T07:09:52;4.13;;;2.85;;
37907;SDS011;23740;51.550;6.846;2023-02-11T07:12:19;3.90;;;2.47;;
37907;SDS011;23740;51.550;6.846;2023-02-11T07:14:46;4.88;;;2.70;;
37907;SDS011;23740;51.550;6.846;2023-02-11T07:17:14;6.60;;;2.80;;
37907;SDS011;23740;51.550;6.846;2023-02-11T07:19:41;6.03;;;2.88;;
37907;SDS011;23740;51.550;6.846;2023-02-11T07:22:07;3.25;;;2.20;;
37907;SDS011;23740;51.550;6.846;2023-02-11T07:24:34;3.47;;;2.55;;
37907;SDS011;23740;51.550;6.846;2023-02-11T07:27:00;3.25;;;2.38;;
37907;SDS011;23740;51.550;6.846;2023-02-11T07:29:27;5.03;;;2.47;;
37907;SDS011;23740;51.550;6.846;2023-02-11T07:31:53;5.63;;;2.83;;
37907;SDS011;23740;51.550;6.846;2023-02-11T07:34:21;4.18;;;2.40;;
37907;SDS011;23740;51.550;6.846;2023-02-11T07:36:48;4.85;;;2.80;;
37907;SDS011;23740;51.550;6.846;2023-02-11T07:39:15;4.82;;;2.55;;
37907;SDS011;23740;51.550;6.846;2023-02-11T07:41:41;4.03;;;2.50;;
37907;SDS011;23740;51.550;6.846;2023-02-11T07:44:11;4.70;;;2.55;;
37907;SDS011;23740;51.550;6.846;2023-02-11T07:46:38;4.97;;;2.80;;
37907;SDS011;23740;51.550;6.846;2023-02-11T07:49:07;4.75;;;2.25;;
37907;SDS011;23740;51.550;6.846;2023-02-11T07:51:35;4.57;;;2.33;;
37907;SDS011;23740;51.550;6.846;2023-02-11T07:54:01;5.45;;;2.60;;
37907;SDS011;23740;51.550;6.846;2023-02-11T07:56:28;4.10;;;2.25;;
37907;SDS011;23740;51.550;6.846;2023-02-11T07:58:57;4.97;;;2.40;;
37907;SDS011;23740;51.550;6.846;2023-02-11T08:01:25;5.15;;;2.80;;
37907;SDS011;23740;51.550;6.846;2023-02-11T08:03:52;4.80;;;2.30;;
37907;SDS011;23740;51.550;6.846;2023-02-11T08:06:21;6.05;;;2.60;;
37907;SDS011;23740;51.550;6.846;2023-02-11T08:08:49;4.93;;;2.47;;
37907;SDS011;23740;51.550;6.846;2023-02-11T08:11:17;4.03;;;2.37;;
37907;SDS011;23740;51.550;6.846;2023-02-11T08:13:44;3.17;;;2.20;;
37907;SDS011;23740;51.550;6.846;2023-02-11T08:16:16;4.72;;;2.70;;
37907;SDS011;23740;51.550;6.846;2023-02-11T08:18:44;4.25;;;2.70;;
37907;SDS011;23740;51.550;6.846;2023-02-11T08:21:10;6.03;;;3.08;;
37907;SDS011;23740;51.550;6.846;2023-02-11T08:23:37;5.30;;;2.90;;
37907;SDS011;23740;51.550;6.846;2023-02-11T08:26:07;4.68;;;3.10;;
37907;SDS011;23740;51.550;6.846;2023-02-11T08:28:35;5.28;;;3.60;;
37907;SDS011;23740;51.550;6.846;2023-02-11T08:31:03;6.40;;;3.97;;
37907;SDS011;23740;51.550;6.846;2023-02-11T08:33:30;7.70;;;3.30;;
37907;SDS011;23740;51.550;6.846;2023-02-11T08:35:57;5.25;;;3.33;;
37907;SDS011;23740;51.550;6.846;2023-02-11T08:38:24;5.65;;;3.20;;
37907;SDS011;23740;51.550;6.846;2023-02-11T08:40:51;6.22;;;3.08;;
37907;SDS011;23740;51.550;6.846;2023-02-11T08:43:18;4.93;;;2.80;;
37907;SDS011;23740;51.550;6.846;2023-02-11T08:45:45;5.50;;;2.97;;
37907;SDS011;23740;51.550;6.846;2023-02-11T08:48:12;4.38;;;2.85;;
37907;SDS011;23740;51.550;6.846;2023-02-11T08:50:38;5.90;;;3.25;;
37907;SDS011;23740;51.550;6.846;2023-02-11T08:53:05;5.32;;;3.13;;
37907;SDS011;23740;51.550;6.846;2023-02-11T08:55:32;4.40;;;2.65;;
37907;SDS011;23740;51.550;6.846;2023-02-11T08:57:58;5.15;;;2.42;;
37907;SDS011;23740;51.550;6.846;2023-02-11T09:00:26;4.00;;;2.60;;
37907;SDS011;23740;51.550;6.846;2023-02-11T09:02:53;6.77;;;2.77;;
37907;SDS011;23740;51.550;6.846;2023-02-11T09:05:20;6.55;;;3.17;;
37907;SDS011;23740;51.550;6.846;2023-02-11T09:07:47;5.75;;;2.78;;
37907;SDS011;23740;51.550;6.846;2023-02-11T09:10:13;4.78;;;2.65;;
37907;SDS011;23740;51.550;6.846;2023-02-11T09:12:40;9.13;;;5.45;;
37907;SDS011;23740;51.550;6.846;2023-02-11T09:15:07;9.10;;;4.40;;
37907;SDS011;23740;51.550;6.846;2023-02-11T09:17:35;8.60;;;4.75;;
37907;SDS011;23740;51.550;6.846;2023-02-11T09:20:02;9.18;;;4.97;;
37907;SDS011;23740;51.550;6.846;2023-02-11T09:22:29;7.25;;;4.75;;
37907;SDS011;23740;51.550;6.846;2023-02-11T09:24:56;7.38;;;4.25;;
37907;SDS011;23740;51.550;6.846;2023-02-11T09:27:22;6.50;;;4.30;;
37907;SDS011;23740;51.550;6.846;2023-02-11T09:29:49;9.20;;;4.47;;
37907;SDS011;23740;51.550;6.846;2023-02-11T09:32:16;6.97;;;3.60;;
37907;SDS011;23740;51.550;6.846;2023-02-11T09:34:44;7.88;;;3.90;;
37907;SDS011;23740;51.550;6.846;2023-02-11T09:37:10;6.70;;;4.22;;
37907;SDS011;23740;51.550;6.846;2023-02-11T09:39:37;8.55;;;3.60;;
37907;SDS011;23740;51.550;6.846;2023-02-11T09:42:17;8.95;;;3.72;;
37907;SDS011;23740;51.550;6.846;2023-02-11T09:44:50;7.75;;;4.22;;
37907;SDS011;23740;51.550;6.846;2023-02-11T09:47:24;6.88;;;3.50;;
37907;SDS011;23740;51.550;6.846;2023-02-11T09:49:56;7.30;;;3.63;;
37907;SDS011;23740;51.550;6.846;2023-02-11T09:52:29;9.82;;;4.70;;
37907;SDS011;23740;51.550;6.846;2023-02-11T09:54:59;13.82;;;6.60;;
37907;SDS011;23740;51.550;6.846;2023-02-11T09:57:34;12.82;;;8.43;;
37907;SDS011;23740;51.550;6.846;2023-02-11T10:00:06;14.63;;;8.85;;
37907;SDS011;23740;51.550;6.846;2023-02-11T10:02:44;12.30;;;6.68;;
37907;SDS011;23740;51.550;6.846;2023-02-11T10:05:36;10.68;;;6.35;;
37907;SDS011;23740;51.550;6.846;2023-02-11T10:08:14;8.38;;;5.93;;
37907;SDS011;23740;51.550;6.846;2023-02-11T10:10:46;8.45;;;5.78;;
37907;SDS011;23740;51.550;6.846;2023-02-11T10:13:21;9.85;;;5.60;;
37907;SDS011;23740;51.550;6.846;2023-02-11T10:15:56;10.13;;;5.35;;
37907;SDS011;23740;51.550;6.846;2023-02-11T10:18:33;10.80;;;4.85;;
37907;SDS011;23740;51.550;6.846;2023-02-11T10:21:11;8.07;;;5.00;;
37907;SDS011;23740;51.550;6.846;2023-02-11T10:23:44;10.23;;;5.18;;
37907;SDS011;23740;51.550;6.846;2023-02-11T10:26:13;9.70;;;5.28;;
37907;SDS011;23740;51.550;6.846;2023-02-11T10:28:43;9.60;;;4.88;;
37907;SDS011;23740;51.550;6.846;2023-02-11T10:31:12;7.93;;;4.80;;
37907;SDS011;23740;51.550;6.846;2023-02-11T10:33:42;10.18;;;4.95;;
37907;SDS011;23740;51.550;6.846;2023-02-11T10:36:11;8.10;;;5.03;;
37907;SDS011;23740;51.550;6.846;2023-02-11T10:38:39;8.40;;;4.40;;
37907;SDS011;23740;51.550;6.846;2023-02-11T10:41:08;10.13;;;4.95;;
37907;SDS011;23740;51.550;6.846;2023-02-11T10:43:35;7.78;;;4.38;;
37907;SDS011;23740;51.550;6.846;2023-02-11T10:46:02;9.48;;;4.68;;
37907;SDS011;23740;51.550;6.846;2023-02-11T10:48:40;9.38;;;4.63;;
37907;SDS011;23740;51.550;6.846;2023-02-11T10:51:16;7.35;;;4.75;;
37907;SDS011;23740;51.550;6.846;2023-02-11T10:53:44;13.10;;;6.03;;
37907;SDS011;23740;51.550;6.846;2023-02-11T10:56:13;7.45;;;4.93;;
37907;SDS011;23740;51.550;6.846;2023-02-11T10:58:52;11.38;;;6.20;;
37907;SDS011;23740;51.550;6.846;2023-02-11T11:01:20;8.90;;;4.53;;
37907;SDS011;23740;51.550;6.846;2023-02-11T11:03:47;9.18;;;5.43;;
37907;SDS011;23740;51.550;6.846;2023-02-11T11:06:26;10.02;;;5.53;;
37907;SDS011;23740;51.550;6.846;2023-02-11T11:11:21;8.50;;;5.85;;
37907;SDS011;23740;51.550;6.846;2023-02-11T11:13:53;10.02;;;5.47;;
37907;SDS011;23740;51.550;6.846;2023-02-11T11:16:22;8.77;;;5.00;;
37907;SDS011;23740;51.550;6.846;2023-02-11T11:18:51;12.02;;;5.20;;
37907;SDS011;23740;51.550;6.846;2023-02-11T11:21:21;7.88;;;4.82;;
37907;SDS011;23740;51.550;6.846;2023-02-11T11:23:50;9.02;;;4.60;;
37907;SDS011;23740;51.550;6.846;2023-02-11T11:26:21;10.00;;;5.53;;
37907;SDS011;23740;51.550;6.846;2023-02-11T11:28:55;12.13;;;5.35;;
37907;SDS011;23740;51.550;6.846;2023-02-11T11:31:25;8.23;;;4.80;;
37907;SDS011;23740;51.550;6.846;2023-02-11T11:33:55;10.07;;;5.45;;
37907;SDS011;23740;51.550;6.846;2023-02-11T11:36:31;8.63;;;5.22;;
37907;SDS011;23740;51.550;6.846;2023-02-11T11:39:00;8.98;;;4.88;;
37907;SDS011;23740;51.550;6.846;2023-02-11T11:41:29;9.63;;;4.60;;
37907;SDS011;23740;51.550;6.846;2023-02-11T11:43:57;7.80;;;4.25;;
37907;SDS011;23740;51.550;6.846;2023-02-11T11:46:27;8.00;;;4.45;;
37907;SDS011;23740;51.550;6.846;2023-02-11T11:48:57;11.30;;;4.68;;
37907;SDS011;23740;51.550;6.846;2023-02-11T11:51:30;8.55;;;4.88;;
37907;SDS011;23740;51.550;6.846;2023-02-11T11:53:58;10.45;;;5.63;;
37907;SDS011;23740;51.550;6.846;2023-02-11T11:56:26;14.45;;;6.00;;
37907;SDS011;23740;51.550;6.846;2023-02-11T11:58:54;12.40;;;5.25;;
37907;SDS011;23740;51.550;6.846;2023-02-11T12:01:25;24.83;;;6.87;;
37907;SDS011;23740;51.550;6.846;2023-02-11T12:06:52;10.13;;;4.82;;
37907;SDS011;23740;51.550;6.846;2023-02-11T12:09:27;11.57;;;4.70;;
37907;SDS011;23740;51.550;6.846;2023-02-11T12:12:05;9.90;;;4.88;;
37907;SDS011;23740;51.550;6.846;2023-02-11T12:14:42;9.10;;;4.78;;
37907;SDS011;23740;51.550;6.846;2023-02-11T12:17:18;7.00;;;4.57;;
37907;SDS011;23740;51.550;6.846;2023-02-11T12:20:15;7.05;;;4.22;;
37907;SDS011;23740;51.550;6.846;2023-02-11T12:22:48;10.45;;;4.93;;
37907;SDS011;23740;51.550;6.846;2023-02-11T12:25:26;11.45;;;4.72;;
37907;SDS011;23740;51.550;6.846;2023-02-11T12:28:02;10.40;;;4.95;;
37907;SDS011;23740;51.550;6.846;2023-02-11T12:30:40;10.32;;;4.57;;
37907;SDS011;23740;51.550;6.846;2023-02-11T12:33:15;10.18;;;5.68;;
37907;SDS011;23740;51.550;6.846;2023-02-11T12:35:51;15.98;;;10.88;;
37907;SDS011;23740;51.550;6.846;2023-02-11T12:38:28;14.35;;;8.70;;
37907;SDS011;23740;51.550;6.846;2023-02-11T12:41:03;13.30;;;8.75;;
37907;SDS011;23740;51.550;6.846;2023-02-11T12:43:38;13.77;;;9.52;;
37907;SDS011;23740;51.550;6.846;2023-02-11T12:46:12;16.42;;;8.27;;
37907;SDS011;23740;51.550;6.846;2023-02-11T12:49:02;16.08;;;8.85;;
37907;SDS011;23740;51.550;6.846;2023-02-11T12:51:41;15.68;;;8.88;;
37907;SDS011;23740;51.550;6.846;2023-02-11T12:54:16;14.40;;;9.13;;
37907;SDS011;23740;51.550;6.846;2023-02-11T12:56:48;12.02;;;8.15;;
37907;SDS011;23740;51.550;6.846;2023-02-11T12:59:19;12.40;;;8.35;;
37907;SDS011;23740;51.550;6.846;2023-02-11T13:01:53;12.80;;;8.60;;
37907;SDS011;23740;51.550;6.846;2023-02-11T13:04:22;16.85;;;8.27;;
37907;SDS011;23740;51.550;6.846;2023-02-11T13:06:54;11.52;;;7.38;;
37907;SDS011;23740;51.550;6.846;2023-02-11T13:09:25;17.35;;;8.18;;
37907;SDS011;23740;51.550;6.846;2023-02-11T13:11:54;14.57;;;8.82;;
37907;SDS011;23740;51.550;6.846;2023-02-11T13:14:43;16.20;;;8.82;;
37907;SDS011;23740;51.550;6.846;2023-02-11T13:17:11;12.75;;;7.78;;
37907;SDS011;23740;51.550;6.846;2023-02-11T13:19:41;16.02;;;8.68;;
37907;SDS011;23740;51.550;6.846;2023-02-11T13:22:10;15.40;;;10.23;;
37907;SDS011;23740;51.550;6.846;2023-02-11T13:24:42;18.25;;;10.82;;
37907;SDS011;23740;51.550;6.846;2023-02-11T13:27:12;15.38;;;10.25;;
37907;SDS011;23740;51.550;6.846;2023-02-11T13:33:02;18.10;;;9.43;;
37907;SDS011;23740;51.550;6.846;2023-02-11T13:35:39;17.38;;;9.27;;
37907;SDS011;23740;51.550;6.846;2023-02-11T13:38:16;16.73;;;8.25;;
37907;SDS011;23740;51.550;6.846;2023-02-11T13:40:45;13.10;;;7.93;;
37907;SDS011;23740;51.550;6.846;2023-02-11T13:43:24;13.57;;;7.63;;
37907;SDS011;23740;51.550;6.846;2023-02-11T13:45:55;13.65;;;8.13;;
37907;SDS011;23740;51.550;6.846;2023-02-11T13:48:23;12.50;;;8.20;;
37907;SDS011;23740;51.550;6.846;2023-02-11T13:50:52;17.63;;;8.30;;
37907;SDS011;23740;51.550;6.846;2023-02-11T13:55:48;13.00;;;7.57;;
37907;SDS011;23740;51.550;6.846;2023-02-11T13:58:17;13.15;;;7.28;;
37907;SDS011;23740;51.550;6.846;2023-02-11T14:00:52;13.10;;;7.32;;
37907;SDS011;23740;51.550;6.846;2023-02-11T14:03:26;9.70;;;7.38;;
37907;SDS011;23740;51.550;6.846;2023-02-11T14:06:13;14.25;;;7.78;;
37907;SDS011;23740;51.550;6.846;2023-02-11T14:09:01;12.25;;;7.05;;
37907;SDS011;23740;51.550;6.846;2023-02-11T14:11:49;13.60;;;7.80;;
37907;SDS011;23740;51.550;6.846;2023-02-11T14:14:20;18.30;;;8.57;;
37907;SDS011;23740;51.550;6.846;2023-02-11T14:19:56;10.75;;;6.35;;
37907;SDS011;23740;51.550;6.846;2023-02-11T14:22:24;12.52;;;6.65;;
37907;SDS011;23740;51.550;6.846;2023-02-11T14:24:52;15.93;;;8.13;;
37907;SDS011;23740;51.550;6.846;2023-02-11T14:27:29;12.38;;;6.78;;
37907;SDS011;23740;51.550;6.846;2023-02-11T14:30:01;12.20;;;7.13;;
37907;SDS011;23740;51.550;6.846;2023-02-11T14:32:38;12.50;;;7.07;;
37907;SDS011;23740;51.550;6.846;2023-02-11T14:35:13;10.65;;;6.80;;
37907;SDS011;23740;51.550;6.846;2023-02-11T14:37:44;14.57;;;7.65;;
37907;SDS011;23740;51.550;6.846;2023-02-11T14:40:15;13.38;;;7.55;;
37907;SDS011;23740;51.550;6.846;2023-02-11T14:42:48;12.43;;;7.38;;
37907;SDS011;23740;51.550;6.846;2023-02-11T14:45:17;9.88;;;6.60;;
37907;SDS011;23740;51.550;6.846;2023-02-11T14:47:46;10.93;;;6.70;;
37907;SDS011;23740;51.550;6.846;2023-02-11T14:50:18;13.15;;;6.97;;
37907;SDS011;23740;51.550;6.846;2023-02-11T14:52:47;13.52;;;7.32;;
37907;SDS011;23740;51.550;6.846;2023-02-11T14:55:17;11.90;;;7.07;;
37907;SDS011;23740;51.550;6.846;2023-02-11T14:58:05;9.37;;;6.83;;
37907;SDS011;23740;51.550;6.846;2023-02-11T15:00:46;11.75;;;6.55;;
37907;SDS011;23740;51.550;6.846;2023-02-11T15:03:23;12.32;;;7.10;;
37907;SDS011;23740;51.550;6.846;2023-02-11T15:05:52;14.55;;;7.03;;
37907;SDS011;23740;51.550;6.846;2023-02-11T15:08:20;12.80;;;6.72;;
37907;SDS011;23740;51.550;6.846;2023-02-11T15:10:47;10.18;;;7.18;;
37907;SDS011;23740;51.550;6.846;2023-02-11T15:13:16;11.77;;;6.57;;
37907;SDS011;23740;51.550;6.846;2023-02-11T15:15:45;13.52;;;6.55;;
37907;SDS011;23740;51.550;6.846;2023-02-11T15:18:15;8.90;;;5.97;;
37907;SDS011;23740;51.550;6.846;2023-02-11T15:20:46;11.52;;;6.28;;